Time;durP1;ratioP1;P1;durP2;ratioP2;P2;SDS_P1;SDS_P2;PMS_P1;PMS_P2;Temp;Humidity;BMP_temperature;BMP_pressure;BME280_temperature;BME280_humidity;BME280_pressure;Samples;Min_cycle;Max_cycle;Signal;HPM_P1;HPM_P2
2022/10/02 00:02:20;;;;;;;2.10;0.93;;;;;;;15.63;100.00;94367.34;5128311;28;20204;-74
2022/10/02 00:04:56;;;;;;;4.05;1.55;;;;;;;15.67;100.00;94361.16;5127813;28;20261;-75
2022/10/02 00:07:29;;;;;;;1.20;0.98;;;;;;;15.73;100.00;94365.16;5128289;28;20196;-78
2022/10/02 00:10:01;;;;;;;1.70;0.70;;;;;;;15.73;100.00;94370.59;5128458;28;20200;-75
2022/10/02 00:12:30;;;;;;;3.00;1.00;;;;;;;15.77;100.00;94361.31;5128112;28;20253;-76
2022/10/02 00:15:13;;;;;;;4.57;1.48;;;;;;;15.81;100.00;94361.38;5127694;28;20229;-77
2022/10/02 00:17:44;;;;;;;2.22;1.10;;;;;;;15.86;100.00;94369.25;5127753;27;20197;-75
2022/10/02 00:20:15;;;;;;;1.13;1.02;;;;;;;15.88;100.00;94361.47;5129821;27;20196;-75
2022/10/02 00:22:50;;;;;;;2.40;1.15;;;;;;;15.89;100.00;94365.78;5132519;27;20205;-76
2022/10/02 00:25:23;;;;;;;1.95;1.38;;;;;;;15.92;100.00;94376.00;5132878;27;20196;-77
2022/10/02 00:28:06;;;;;;;2.38;1.60;;;;;;;15.92;100.00;94376.00;5133264;27;20246;-75
2022/10/02 00:30:40;;;;;;;2.72;2.10;;;;;;;15.91;100.00;94382.59;5133116;27;20704;-75
2022/10/02 00:33:18;;;;;;;3.22;1.95;;;;;;;15.92;100.00;94376.00;5132957;27;20217;-75
2022/10/02 00:36:21;;;;;;;3.85;2.05;;;;;;;15.89;100.00;94374.78;5132906;27;20221;-77
2022/10/02 00:38:56;;;;;;;2.47;2.17;;;;;;;15.86;100.00;94380.19;5132265;27;20228;-76
2022/10/02 00:42:02;;;;;;;2.22;1.70;;;;;;;15.86;100.00;94391.09;5133364;27;20238;-75
2022/10/02 00:44:51;;;;;;;4.47;1.95;;;;;;;15.81;100.00;94405.09;5133310;27;20205;-76
2022/10/02 00:47:28;;;;;;;3.53;2.40;;;;;;;15.82;100.00;94406.66;5119364;27;20266;-76
2022/10/02 00:50:16;;;;;;;8.35;2.08;;;;;;;15.77;100.00;94415.94;5132617;27;20640;-76
2022/10/02 00:52:55;;;;;;;2.70;1.88;;;;;;;15.76;100.00;94419.03;5132893;27;20295;-76
2022/10/02 00:55:38;;;;;;;3.03;1.63;;;;;;;15.77;100.00;94417.91;5133053;27;20220;-75
2022/10/02 00:58:30;;;;;;;2.95;2.22;;;;;;;15.71;100.00;94416.63;5132958;27;20311;-75
2022/10/02 01:01:02;;;;;;;2.70;1.95;;;;;;;15.68;100.00;94420.88;5132681;27;20265;-76
2022/10/02 01:03:35;;;;;;;5.88;1.83;;;;;;;15.62;100.00;94414.91;5118896;27;20254;-76
2022/10/02 01:06:01;;;;;;;5.60;2.13;;;;;;;15.61;100.00;94429.72;5132673;27;20328;-75
2022/10/02 01:08:30;;;;;;;2.45;2.00;;;;;;;15.56;100.00;94427.31;5132441;27;20197;-75
2022/10/02 01:10:57;;;;;;;1.95;1.48;;;;;;;15.49;100.00;94427.16;5132426;27;20645;-75
2022/10/02 01:13:24;;;;;;;2.25;1.50;;;;;;;15.41;100.00;94435.59;5132476;27;20200;-76
2022/10/02 01:15:53;;;;;;;2.38;1.58;;;;;;;15.42;100.00;94428.97;5132441;27;20221;-76
2022/10/02 01:18:20;;;;;;;1.30;1.20;;;;;;;15.40;97.75;94434.78;5131787;27;20711;-75
2022/10/02 01:20:50;;;;;;;0.98;0.80;;;;;;;15.42;95.05;94443.41;5132094;27;20257;-76
2022/10/02 01:23:28;;;;;;;1.48;0.90;;;;;;;15.46;94.90;94438.78;5132636;27;20205;-76
2022/10/02 01:25:57;;;;;;;1.10;0.85;;;;;;;15.43;94.59;94442.25;5131415;27;20229;-77
2022/10/02 01:28:24;;;;;;;1.02;0.88;;;;;;;15.44;93.80;94443.84;5132164;27;20201;-76
2022/10/02 01:30:55;;;;;;;1.40;1.00;;;;;;;15.40;94.13;94440.25;5131852;27;20242;-75
2022/10/02 01:33:23;;;;;;;1.10;1.00;;;;;;;15.33;94.77;94445.56;5131866;27;20221;-76
2022/10/02 01:35:50;;;;;;;0.95;0.77;;;;;;;15.32;93.90;94448.66;5132100;27;20268;-76
2022/10/02 01:38:20;;;;;;;0.88;0.88;;;;;;;15.20;94.45;94455.84;5131609;27;20265;-76
2022/10/02 01:40:47;;;;;;;0.90;0.77;;;;;;;15.22;93.13;94461.75;5132391;27;20220;-76
2022/10/02 01:43:19;;;;;;;1.35;0.90;;;;;;;15.16;93.89;94456.97;5132142;27;20601;-75
2022/10/02 01:46:07;;;;;;;1.00;0.73;;;;;;;15.10;94.49;94469.28;5131982;27;20578;-77
2022/10/02 01:48:46;;;;;;;2.30;1.13;;;;;;;15.07;94.85;94464.56;5131529;27;20200;-76
2022/10/02 01:51:32;;;;;;;1.42;1.08;;;;;;;14.99;94.68;94471.03;5131938;27;20204;-76
2022/10/02 01:54:09;;;;;;;2.67;1.27;;;;;;;14.93;94.95;94465.84;5131900;27;20193;-76
2022/10/02 01:56:44;;;;;;;0.60;0.60;;;;;;;14.88;94.63;94471.59;5131372;27;20576;-77
2022/10/02 01:59:23;;;;;;;1.63;1.10;;;;;;;14.88;94.23;94468.88;5131534;27;20200;-76
2022/10/02 02:02:05;;;;;;;0.80;0.60;;;;;;;14.79;94.72;94471.00;5130820;27;20227;-75
2022/10/02 02:04:41;;;;;;;1.23;0.90;;;;;;;14.80;92.87;94467.13;5131218;27;20201;-76
2022/10/02 02:07:13;;;;;;;2.13;1.15;;;;;;;14.81;92.00;94468.72;5131916;27;20208;-76
2022/10/02 02:09:45;;;;;;;0.82;0.80;;;;;;;14.73;92.08;94472.47;5131149;27;20269;-76
2022/10/02 02:12:18;;;;;;;0.98;0.82;;;;;;;14.68;91.65;94463.75;5131462;27;20233;-75
2022/10/02 02:14:50;;;;;;;0.50;0.50;;;;;;;14.66;91.13;94476.94;5131105;27;20240;-78
2022/10/02 02:17:26;;;;;;;5.95;1.00;;;;;;;14.67;90.81;94468.41;5131334;27;20245;-76
2022/10/02 02:20:01;;;;;;;0.95;0.65;;;;;;;14.65;90.48;94492.53;5130593;27;20200;-74
2022/10/02 02:22:33;;;;;;;2.28;0.52;;;;;;;14.71;90.17;94502.00;5131279;27;20193;-74
2022/10/02 02:25:06;;;;;;;0.68;0.68;;;;;;;14.80;89.12;94507.25;5131150;27;20219;-75
2022/10/02 02:27:37;;;;;;;1.73;0.80;;;;;;;14.81;89.00;94506.91;5131023;27;20265;-80
2022/10/02 02:30:10;;;;;;;0.45;0.45;;;;;;;14.87;88.58;94510.94;5130977;27;20560;-73
2022/10/02 02:32:43;;;;;;;1.05;0.75;;;;;;;14.90;88.52;94512.94;5131353;27;20581;-75
2022/10/02 02:35:16;;;;;;;4.18;1.05;;;;;;;14.93;88.56;94519.63;5131390;27;20639;-75
2022/10/02 02:37:46;;;;;;;0.70;0.70;;;;;;;14.91;88.24;94508.25;5134168;27;20557;-73
2022/10/02 02:40:17;;;;;;;0.93;0.50;;;;;;;14.89;88.83;94519.56;5133163;27;20205;-76
2022/10/02 02:42:53;;;;;;;2.40;0.65;;;;;;;14.84;89.33;94525.28;5130864;27;20204;-75
2022/10/02 02:45:26;;;;;;;1.45;0.30;;;;;;;15.02;87.57;94527.59;5130970;27;20656;-75
2022/10/02 02:47:56;;;;;;;0.80;0.60;;;;;;;14.90;88.44;94523.84;5130982;27;20205;-75
2022/10/02 02:50:26;;;;;;;0.88;0.85;;;;;;;14.88;88.37;94523.44;5129761;27;20233;-74
2022/10/02 02:52:58;;;;;;;1.77;1.00;;;;;;;14.79;89.32;94531.00;5130412;27;20204;-74
2022/10/02 02:55:31;;;;;;;0.80;0.75;;;;;;;14.78;89.04;94534.09;5117518;27;20225;-74
2022/10/02 02:58:05;;;;;;;1.08;0.98;;;;;;;14.82;89.00;94538.47;5130366;27;20232;-74
2022/10/02 03:00:33;;;;;;;0.82;0.82;;;;;;;14.79;89.97;94539.19;5130693;27;21000;-74
2022/10/02 03:03:00;;;;;;;0.90;0.90;;;;;;;14.77;90.14;94540.69;5130738;27;20212;-75
2022/10/02 03:05:29;;;;;;;0.80;0.80;;;;;;;14.72;90.18;94547.22;5131038;27;20339;-75
2022/10/02 03:07:59;;;;;;;0.20;0.20;;;;;;;14.73;89.49;94565.16;5131077;27;20200;-75
2022/10/02 03:10:44;;;;;;;1.35;0.90;;;;;;;14.93;87.94;94564.03;5130341;27;20196;-78
2022/10/02 03:13:23;;;;;;;1.92;0.90;;;;;;;14.91;88.63;94571.78;5130210;27;20201;-74
2022/10/02 03:16:05;;;;;;;1.42;1.10;;;;;;;14.92;88.48;94589.75;5129831;27;20755;-74
2022/10/02 03:18:48;;;;;;;2.17;1.60;;;;;;;14.89;88.63;94574.09;5129677;27;20297;-74
2022/10/02 03:21:23;;;;;;;0.82;0.82;;;;;;;14.81;88.97;94577.00;5128815;27;20232;-75
2022/10/02 03:23:58;;;;;;;1.63;1.27;;;;;;;14.82;89.20;94579.38;5128852;27;20355;-74
2022/10/02 03:26:34;;;;;;;2.83;1.42;;;;;;;14.76;89.23;94590.94;5129419;27;20655;-74
2022/10/02 03:29:05;;;;;;;3.85;1.48;;;;;;;14.73;89.61;94597.88;5129433;27;20205;-77
2022/10/02 03:31:35;;;;;;;2.35;1.88;;;;;;;14.74;89.52;94594.00;5129910;27;20234;-74
2022/10/02 03:34:03;;;;;;;1.90;1.40;;;;;;;14.69;89.31;94586.09;5129643;27;20271;-74
2022/10/02 03:36:30;;;;;;;1.15;1.05;;;;;;;14.67;90.05;94593.03;5130042;27;20225;-73
2022/10/02 03:39:01;;;;;;;1.40;0.98;;;;;;;14.62;90.00;94596.84;5129494;27;20201;-74
2022/10/02 03:41:28;;;;;;;1.30;1.20;;;;;;;14.70;89.35;94600.53;5129505;27;20803;-77
2022/10/02 03:43:55;;;;;;;2.03;1.33;;;;;;;14.76;88.83;94597.16;5129538;27;20212;-73
2022/10/02 03:46:22;;;;;;;1.63;1.20;;;;;;;14.71;89.00;94600.16;5129287;27;20209;-76
2022/10/02 03:48:50;;;;;;;2.95;1.15;;;;;;;14.69;88.67;94599.72;5129529;28;20204;-73
2022/10/02 03:51:17;;;;;;;1.38;0.75;;;;;;;14.69;88.59;94607.91;5129239;28;20596;-73
2022/10/02 03:53:44;;;;;;;2.05;1.52;;;;;;;14.64;89.04;94621.81;5128945;27;20723;-73
2022/10/02 03:56:18;;;;;;;1.92;1.38;;;;;;;14.61;88.90;94617.06;5133579;27;20232;-76
2022/10/02 03:58:48;;;;;;;1.42;1.20;;;;;;;14.53;90.29;94623.47;5133622;27;20656;-79
2022/10/02 04:01:21;;;;;;;2.28;1.67;;;;;;;14.50;89.79;94616.78;5133239;27;20692;-76
2022/10/02 04:03:54;;;;;;;2.03;1.48;;;;;;;14.45;90.15;94630.72;5133561;27;20659;-74
2022/10/02 04:06:26;;;;;;;1.60;1.50;;;;;;;14.40;90.54;94622.78;5133564;27;20287;-73
2022/10/02 04:09:01;;;;;;;1.60;1.48;;;;;;;14.40;89.94;94632.91;5133948;27;20254;-74
2022/10/02 04:11:33;;;;;;;2.00;1.50;;;;;;;14.42;89.51;94646.97;5133892;27;20256;-76
2022/10/02 04:14:08;;;;;;;1.50;1.40;;;;;;;14.43;89.64;94648.56;5133222;27;20247;-74
2022/10/02 04:16:40;;;;;;;1.33;1.23;;;;;;;14.44;88.96;94658.31;5133597;27;20217;-74
2022/10/02 04:19:14;;;;;;;2.03;1.65;;;;;;;14.49;89.22;94663.47;5133023;27;20290;-74
2022/10/02 04:21:46;;;;;;;1.58;1.45;;;;;;;14.49;89.40;94674.38;5132984;27;20233;-74
2022/10/02 04:24:21;;;;;;;0.98;0.88;;;;;;;14.55;88.89;94678.44;5132129;27;20201;-75
2022/10/02 04:26:58;;;;;;;1.27;1.17;;;;;;;14.62;88.32;94677.84;5132706;27;20207;-79
2022/10/02 04:29:28;;;;;;;3.05;1.00;;;;;;;14.62;88.99;94680.56;5119927;27;20287;-74
2022/10/02 04:32:13;;;;;;;0.93;0.93;;;;;;;14.62;88.34;94678.66;5132624;27;20279;-78
2022/10/02 04:34:41;;;;;;;1.70;1.60;;;;;;;14.56;88.77;94680.03;5133177;27;20197;-77
2022/10/02 04:37:27;;;;;;;1.75;1.40;;;;;;;14.72;88.03;94688.22;5133246;27;20232;-77
2022/10/02 04:40:23;;;;;;;4.20;1.77;;;;;;;14.71;87.70;94664.81;5132531;27;20200;-74
2022/10/02 04:43:04;;;;;;;2.70;1.55;;;;;;;14.80;87.69;94682.56;5132686;27;20249;-74
2022/10/02 04:45:48;;;;;;;1.08;0.95;;;;;;;14.90;86.74;94682.03;5132740;27;20440;-73
2022/10/02 04:48:39;;;;;;;1.50;1.40;;;;;;;15.45;84.08;94687.56;5132977;27;20204;-74
2022/10/02 04:51:19;;;;;;;1.40;1.30;;;;;;;15.91;81.47;94678.44;5132493;27;20656;-76
2022/10/02 04:54:03;;;;;;;1.73;1.35;;;;;;;15.56;81.62;94689.44;5132674;27;20665;-73
2022/10/02 04:56:46;;;;;;;1.33;1.23;;;;;;;15.96;79.42;94702.75;5132004;27;20217;-73
2022/10/02 04:59:26;;;;;;;3.33;2.10;;;;;;;16.16;78.25;94705.47;5132467;27;20197;-74
2022/10/02 05:02:01;;;;;;;1.48;1.38;;;;;;;16.05;78.56;94710.72;5132337;27;20200;-74
2022/10/02 05:04:46;;;;;;;2.28;2.00;;;;;;;15.48;80.48;94714.16;5132862;27;20193;-74
2022/10/02 05:07:32;;;;;;;2.40;1.67;;;;;;;15.15;81.88;94717.31;5132068;27;20201;-74
2022/10/02 05:10:09;;;;;;;2.22;1.88;;;;;;;14.97;82.37;94710.66;5132283;27;20201;-75
2022/10/02 05:12:55;;;;;;;1.45;1.33;;;;;;;14.97;82.15;94721.56;5132284;27;20253;-73
2022/10/02 05:15:45;;;;;;;1.20;1.10;;;;;;;16.03;78.01;94713.03;5131976;27;20213;-77
2022/10/02 05:18:28;;;;;;;1.90;1.15;;;;;;;16.97;73.87;94712.44;5119542;27;20233;-72
2022/10/02 05:21:21;;;;;;;1.35;1.20;;;;;;;17.34;71.63;94712.66;5132006;27;20291;-72
2022/10/02 05:24:09;;;;;;;1.98;1.17;;;;;;;17.53;70.21;94700.78;5131641;27;20201;-73
2022/10/02 05:27:12;;;;;;;1.48;1.35;;;;;;;17.51;68.89;94702.31;5131710;27;20345;-72
2022/10/02 05:29:54;;;;;;;1.92;1.15;;;;;;;17.87;67.76;94703.63;5090658;27;20249;-74
2022/10/02 05:32:44;;;;;;;2.33;1.20;;;;;;;17.46;68.52;94705.38;5132094;27;20224;-74
2022/10/02 05:35:29;;;;;;;2.88;1.42;;;;;;;17.36;69.87;94712.28;5131878;27;20590;-72
2022/10/02 05:38:11;;;;;;;1.58;1.48;;;;;;;17.04;69.88;94711.78;5132267;27;20197;-75
2022/10/02 05:40:46;;;;;;;2.33;1.52;;;;;;;16.82;69.97;94721.56;5132296;27;20255;-73
2022/10/02 05:43:23;;;;;;;1.73;1.15;;;;;;;17.70;68.01;94715.94;5132433;27;20685;-73
2022/10/02 05:45:54;;;;;;;0.93;0.88;;;;;;;17.24;67.12;94726.16;5132017;27;20675;-73
2022/10/02 05:48:26;;;;;;;1.58;1.20;;;;;;;16.45;69.62;94725.94;5132207;27;20228;-72
2022/10/02 05:50:58;;;;;;;1.08;1.00;;;;;;;15.95;70.54;94733.19;5131574;27;20229;-72
2022/10/02 05:53:34;;;;;;;1.42;1.33;;;;;;;15.66;71.71;94750.09;5131351;27;20201;-71
2022/10/02 05:56:08;;;;;;;2.65;1.40;;;;;;;15.54;72.54;94740.84;5130998;27;20252;-76
2022/10/02 05:58:41;;;;;;;1.30;1.20;;;;;;;15.50;72.57;94748.16;5131237;27;20285;-73
2022/10/02 06:01:12;;;;;;;1.33;1.23;;;;;;;15.47;73.00;94759.78;5131454;27;20193;-74
2022/10/02 06:03:43;;;;;;;1.08;1.00;;;;;;;15.45;73.23;94766.75;5131675;27;20201;-74
2022/10/02 06:06:16;;;;;;;1.15;0.80;;;;;;;15.55;72.46;94764.31;5131010;27;20193;-74
2022/10/02 06:08:49;;;;;;;1.23;1.13;;;;;;;15.72;72.54;94756.84;5131664;27;20242;-72
2022/10/02 06:11:23;;;;;;;2.70;1.58;;;;;;;15.72;71.79;94767.78;5130906;27;20205;-72
2022/10/02 06:13:52;;;;;;;1.55;1.23;;;;;;;15.68;72.17;94767.72;5131232;27;20727;-74
2022/10/02 06:16:25;;;;;;;1.60;1.23;;;;;;;15.66;72.84;94785.59;5130863;27;20317;-74
2022/10/02 06:18:55;;;;;;;2.03;1.35;;;;;;;15.75;72.13;94794.38;5128360;27;20225;-73
2022/10/02 06:21:33;;;;;;;1.40;1.15;;;;;;;15.76;72.06;94801.44;5130491;27;20308;-75
2022/10/02 06:24:04;;;;;;;1.20;1.10;;;;;;;16.06;71.11;94793.50;5130654;27;20269;-73
2022/10/02 06:26:39;;;;;;;5.65;2.80;;;;;;;16.19;70.43;94809.41;5129903;27;20811;-72
2022/10/02 06:29:14;;;;;;;2.25;1.10;;;;;;;15.83;71.29;94818.00;5129945;27;20276;-73
2022/10/02 06:31:47;;;;;;;3.08;1.17;;;;;;;15.84;70.92;94808.66;5130316;27;20219;-78
2022/10/02 06:34:14;;;;;;;3.45;1.92;;;;;;;16.38;70.00;94788.72;5130425;27;20193;-74
2022/10/02 06:36:57;;;;;;;2.67;2.08;;;;;;;16.66;69.67;94811.19;5129819;27;20228;-74
2022/10/02 06:39:42;;;;;;;1.67;1.48;;;;;;;17.81;65.64;94792.81;5130454;27;20201;-73
2022/10/02 06:42:22;;;;;;;1.02;0.93;;;;;;;17.80;64.64;94802.19;5130250;27;20197;-74
2022/10/02 06:45:02;;;;;;;1.77;1.40;;;;;;;18.34;63.13;94810.78;5129980;27;20261;-73
2022/10/02 06:47:43;;;;;;;1.30;1.20;;;;;;;18.15;63.18;94819.16;5129595;27;20201;-71
2022/10/02 06:50:37;;;;;;;1.35;1.08;;;;;;;17.58;64.25;94821.03;5128520;27;20289;-74
2022/10/02 06:53:14;;;;;;;1.85;1.60;;;;;;;17.98;63.46;94823.22;5127047;27;20656;-74
2022/10/02 06:55:48;;;;;;;1.48;1.35;;;;;;;17.84;63.73;94835.94;5123777;27;20200;-74
2022/10/02 06:58:47;;;;;;;1.88;1.40;;;;;;;17.91;63.93;94808.59;5128631;27;20215;-74
2022/10/02 07:01:24;;;;;;;1.52;1.30;;;;;;;17.48;63.24;94813.44;5119772;27;20584;-81
2022/10/02 07:04:11;;;;;;;1.67;1.55;;;;;;;17.90;63.40;94826.25;5125135;27;20193;-76
2022/10/02 07:06:47;;;;;;;1.20;1.10;;;;;;;17.59;63.90;94819.88;5124928;27;20618;-79
2022/10/02 07:09:52;;;;;;;1.52;1.42;;;;;;;17.58;64.66;94842.94;5125779;27;20193;-76
2022/10/02 07:12:34;;;;;;;2.10;1.80;;;;;;;17.01;65.73;94832.94;5127117;27;20243;-75
2022/10/02 07:15:27;;;;;;;2.20;2.00;;;;;;;16.82;65.88;94830.22;5127395;27;20716;-74
2022/10/02 07:18:08;;;;;;;2.08;1.88;;;;;;;17.10;64.75;94827.22;5127503;27;20286;-74
2022/10/02 07:20:45;;;;;;;6.03;0.80;;;;;;;17.09;63.23;94822.91;5126563;27;20177;-74
2022/10/02 07:23:46;;;;;;;2.95;2.20;;;;;;;17.27;63.19;94818.53;5126959;27;20220;-74
2022/10/02 07:26:25;;;;;;;1.92;1.60;;;;;;;17.01;63.33;94806.38;5127260;27;20249;-75
2022/10/02 07:29:02;;;;;;;1.20;1.10;;;;;;;16.91;64.69;94830.81;5125368;27;20403;-75
2022/10/02 07:31:39;;;;;;;2.17;1.40;;;;;;;17.07;64.25;94830.72;5128514;27;20587;-72
2022/10/02 07:34:17;;;;;;;1.20;0.80;;;;;;;16.92;63.77;94829.66;5129767;27;20276;-74
2022/10/02 07:36:56;;;;;;;1.30;1.20;;;;;;;16.83;63.56;94824.38;5129560;27;20273;-76
2022/10/02 07:39:39;;;;;;;0.80;0.77;;;;;;;16.99;62.86;94829.78;5129673;27;20268;-74
2022/10/02 07:42:31;;;;;;;0.98;0.88;;;;;;;16.88;63.08;94845.19;5130220;27;20273;-74
2022/10/02 07:45:21;;;;;;;1.05;0.95;;;;;;;16.85;63.27;94843.97;5130068;27;20704;-73
2022/10/02 07:48:21;;;;;;;1.05;0.95;;;;;;;17.00;63.55;94843.09;5130610;27;20601;-73
2022/10/02 07:51:45;;;;;;;1.10;1.00;;;;;;;16.86;62.21;94853.78;5117711;28;20221;-73
2022/10/02 07:54:14;;;;;;;1.00;0.85;;;;;;;16.97;61.33;94837.53;5129329;28;20205;-74
2022/10/02 07:56:42;;;;;;;0.85;0.82;;;;;;;17.05;61.15;94859.22;5129764;28;20229;-74
2022/10/02 07:59:15;;;;;;;1.92;1.00;;;;;;;16.88;58.84;94864.34;5129312;28;20253;-76
2022/10/02 08:01:44;;;;;;;0.90;0.90;;;;;;;16.77;59.81;94866.91;5129735;28;20215;-74
2022/10/02 08:04:18;;;;;;;0.70;0.70;;;;;;;16.90;58.89;94860.13;5128907;28;20204;-77
2022/10/02 08:06:47;;;;;;;0.95;0.82;;;;;;;17.02;60.20;94876.38;5128331;28;20290;-75
2022/10/02 08:09:18;;;;;;;1.10;1.00;;;;;;;16.79;59.46;94848.19;5128083;28;20205;-77
2022/10/02 08:11:50;;;;;;;0.88;0.75;;;;;;;17.04;59.65;94876.81;5128597;28;20189;-78
2022/10/02 08:14:24;;;;;;;0.73;0.52;;;;;;;17.15;60.05;94879.75;5128849;28;20193;-77
2022/10/02 08:16:53;;;;;;;1.23;0.88;;;;;;;17.01;60.73;94877.53;5128266;27;20683;-79
2022/10/02 08:19:28;;;;;;;0.93;0.90;;;;;;;17.22;59.59;94882.59;5126001;28;20257;-75
2022/10/02 08:22:00;;;;;;;0.98;0.88;;;;;;;17.25;60.50;94886.56;5128156;28;20561;-75
2022/10/02 08:24:35;;;;;;;1.05;0.95;;;;;;;17.35;60.13;94894.19;5128218;28;20250;-79
2022/10/02 08:27:07;;;;;;;1.30;1.00;;;;;;;17.27;60.60;94885.03;5128414;28;20651;-76
2022/10/02 08:29:42;;;;;;;0.70;0.70;;;;;;;17.22;59.56;94885.34;5128051;28;20195;-76
2022/10/02 08:32:11;;;;;;;1.08;0.75;;;;;;;16.84;60.60;94883.44;5128160;28;20224;-76
2022/10/02 08:34:40;;;;;;;2.05;1.00;;;;;;;17.08;59.87;94881.56;5128085;28;20213;-75
2022/10/02 08:37:31;;;;;;;1.38;1.10;;;;;;;17.06;58.18;94890.13;5128990;27;20572;-73
2022/10/02 08:40:33;;;;;;;0.73;0.60;;;;;;;17.22;59.92;94887.31;5128143;27;20197;-75
2022/10/02 08:43:30;;;;;;;0.95;0.70;;;;;;;16.96;58.66;94902.44;5129655;27;20196;-76
2022/10/02 08:46:33;;;;;;;0.98;0.70;;;;;;;17.11;58.48;94887.09;5132760;27;20197;-76
2022/10/02 08:49:38;;;;;;;1.58;0.90;;;;;;;17.56;57.30;94900.03;5131478;27;20262;-74
2022/10/02 08:52:37;;;;;;;0.70;0.70;;;;;;;17.49;57.81;94886.22;5105566;27;20241;-76
2022/10/02 08:55:39;;;;;;;1.23;0.60;;;;;;;17.60;58.46;94892.69;5125395;27;20196;-76
2022/10/02 08:58:36;;;;;;;1.13;0.95;;;;;;;17.58;57.85;94881.28;5108662;27;20252;-75
2022/10/02 09:01:18;;;;;;;1.00;0.88;;;;;;;17.87;57.97;94881.78;5133093;27;20246;-73
2022/10/02 09:04:11;;;;;;;1.13;0.68;;;;;;;17.68;56.58;94888.91;5130659;27;20200;-74
2022/10/02 09:07:29;;;;;;;1.55;1.45;;;;;;;17.43;57.76;94879.47;5119777;27;20275;-75
2022/10/02 09:10:32;;;;;;;1.98;1.60;;;;;;;17.48;57.99;94876.44;5111242;27;20725;-73
2022/10/02 09:13:34;;;;;;;1.27;1.10;;;;;;;17.99;56.92;94871.41;5131173;27;20584;-76
2022/10/02 09:16:09;;;;;;;1.60;1.30;;;;;;;18.05;56.34;94863.66;5130907;27;20189;-75
2022/10/02 09:18:55;;;;;;;1.35;1.25;;;;;;;18.05;56.01;94871.88;5130309;27;20224;-76
2022/10/02 09:21:39;;;;;;;2.53;1.55;;;;;;;17.80;56.91;94868.75;5120616;27;20200;-75
2022/10/02 09:24:45;;;;;;;1.52;1.42;;;;;;;17.77;56.73;94879.69;5129297;27;20533;-73
2022/10/02 09:27:53;;;;;;;0.82;0.80;;;;;;;17.55;56.90;94873.78;5129196;27;20280;-75
2022/10/02 09:30:33;;;;;;;0.80;0.70;;;;;;;17.50;56.51;94887.78;5107702;27;20193;-79
2022/10/02 09:33:26;;;;;;;1.60;1.20;;;;;;;17.77;56.91;94879.69;5132674;27;20238;-73
2022/10/02 09:36:49;;;;;;;1.73;1.50;;;;;;;18.23;55.28;94864.69;5131344;27;20205;-72
2022/10/02 09:39:58;;;;;;;1.42;0.85;;;;;;;18.17;54.36;94876.38;5128898;27;20238;-72
2022/10/02 09:42:59;;;;;;;1.92;1.10;;;;;;;18.05;54.97;94869.13;5129611;27;20641;-71
2022/10/02 09:45:55;;;;;;;1.60;1.20;;;;;;;18.18;55.87;94862.28;5128407;27;20683;-72
2022/10/02 09:49:01;;;;;;;1.20;1.08;;;;;;;17.95;56.57;94876.03;5128774;27;20193;-75
2022/10/02 09:52:10;;;;;;;2.40;1.30;;;;;;;18.20;55.04;94879.16;5103420;27;20215;-74
2022/10/02 09:55:15;;;;;;;2.20;0.98;;;;;;;18.38;54.73;94868.44;5132384;27;20324;-74
2022/10/02 09:58:23;;;;;;;1.10;1.00;;;;;;;18.52;54.66;94881.56;5131127;27;20304;-74
2022/10/02 10:01:28;;;;;;;1.67;1.02;;;;;;;18.35;52.84;94882.88;5131343;27;20659;-72
2022/10/02 10:04:23;;;;;;;1.25;1.15;;;;;;;18.48;54.00;94870.53;5114257;27;20652;-75
2022/10/02 10:07:25;;;;;;;1.98;1.38;;;;;;;18.63;53.91;94882.50;5131714;27;20261;-74
2022/10/02 10:10:42;;;;;;;1.77;1.27;;;;;;;18.50;53.75;94884.66;5075044;27;20213;-72
2022/10/02 10:13:46;;;;;;;3.97;1.50;;;;;;;18.12;54.35;94885.69;5115086;27;20249;-75
2022/10/02 10:16:47;;;;;;;4.13;1.58;;;;;;;18.29;54.98;94881.63;5131686;27;20201;-72
2022/10/02 10:19:40;;;;;;;3.28;1.60;;;;;;;18.29;55.99;94868.72;5131936;27;20269;-73
2022/10/02 10:22:56;;;;;;;1.17;0.98;;;;;;;18.06;54.48;94873.44;5093189;27;20201;-73
2022/10/02 10:25:50;;;;;;;1.08;0.90;;;;;;;18.26;54.31;94863.97;5131079;27;20234;-73
2022/10/02 10:28:47;;;;;;;1.27;1.17;;;;;;;18.06;54.43;94870.72;5069034;28;20199;-75
2022/10/02 10:32:01;;;;;;;1.25;1.15;;;;;;;18.09;53.89;94865.28;5120008;27;20225;-74
2022/10/02 10:35:06;;;;;;;1.05;0.70;;;;;;;18.09;54.33;94865.28;5120146;27;20235;-75
2022/10/02 10:41:18;;;;;;;1.20;1.10;;;;;;;18.29;53.05;94857.75;5131593;27;20212;-74
2022/10/02 10:44:17;;;;;;;1.30;1.20;;;;;;;18.25;54.13;94856.91;5131624;27;20196;-76
2022/10/02 10:47:09;;;;;;;0.88;0.73;;;;;;;18.08;53.94;94851.94;5105234;27;20219;-78
2022/10/02 10:49:56;;;;;;;1.42;0.77;;;;;;;18.17;54.48;94854.44;5122834;27;20324;-75
2022/10/02 10:52:41;;;;;;;0.70;0.70;;;;;;;18.25;53.47;94873.34;5120098;27;20666;-73
2022/10/02 10:55:17;;;;;;;0.60;0.60;;;;;;;18.35;52.68;94861.72;5130749;27;20250;-78
2022/10/02 10:58:13;;;;;;;0.60;0.60;;;;;;;18.39;52.85;94857.09;5129940;27;20228;-74
2022/10/02 11:00:52;;;;;;;3.25;1.17;;;;;;;18.40;52.55;94861.41;5121271;27;20197;-76
2022/10/02 11:03:45;;;;;;;1.63;0.65;;;;;;;18.59;52.91;94843.25;5129189;27;20653;-72
2022/10/02 11:06:37;;;;;;;1.45;1.17;;;;;;;18.75;51.61;94841.09;5129525;27;20194;-73
2022/10/02 11:09:52;;;;;;;1.88;1.35;;;;;;;18.67;51.86;94847.69;5125781;27;20280;-74
2022/10/02 11:12:42;;;;;;;1.55;1.30;;;;;;;18.39;52.21;94835.16;5044424;28;20283;-73
2022/10/02 11:15:26;;;;;;;1.33;1.23;;;;;;;18.76;51.95;94834.44;5126750;27;20560;-71
2022/10/02 11:18:04;;;;;;;0.85;0.85;;;;;;;18.57;51.46;94854.59;5127605;27;20312;-76
2022/10/02 11:20:55;;;;;;;2.15;1.48;;;;;;;18.49;52.18;94850.16;5126929;27;20440;-75
2022/10/02 11:23:54;;;;;;;1.58;1.10;;;;;;;18.76;52.39;94848.97;5129977;27;20189;-74
2022/10/02 11:26:35;;;;;;;0.90;0.80;;;;;;;19.10;52.65;94847.00;5118849;27;20253;-72
2022/10/02 11:29:33;;;;;;;1.08;0.98;;;;;;;18.88;52.23;94847.91;5130059;27;20201;-72
2022/10/02 11:32:30;;;;;;;1.27;0.98;;;;;;;18.80;51.62;94854.50;5130055;27;20235;-78
2022/10/02 11:35:18;;;;;;;1.67;0.80;;;;;;;18.59;50.75;94855.00;5129339;27;20224;-73
2022/10/02 11:38:02;;;;;;;1.02;0.77;;;;;;;18.48;51.30;94841.13;5129987;27;20717;-73
2022/10/02 11:40:39;;;;;;;0.88;0.82;;;;;;;18.57;51.34;94845.56;5129284;27;20217;-72
2022/10/02 11:43:24;;;;;;;0.60;0.60;;;;;;;18.54;50.89;94857.28;5122570;27;20196;-75
2022/10/02 11:46:13;;;;;;;1.42;1.02;;;;;;;18.42;51.91;94850.88;5127378;27;20293;-73
2022/10/02 11:49:09;;;;;;;1.98;1.55;;;;;;;18.82;52.67;94841.19;5096444;27;20648;-74
2022/10/02 11:52:07;;;;;;;1.05;0.95;;;;;;;18.73;51.61;94854.41;5129097;28;20568;-73
2022/10/02 11:54:49;;;;;;;1.85;0.85;;;;;;;18.31;52.71;94843.66;5121573;28;20207;-78
2022/10/02 11:57:31;;;;;;;1.60;1.38;;;;;;;18.46;52.65;94851.69;5129796;28;20224;-72
2022/10/02 12:00:12;;;;;;;0.70;0.65;;;;;;;18.34;53.66;94849.19;5131327;28;20200;-71
2022/10/02 12:02:49;;;;;;;0.95;0.90;;;;;;;18.36;53.82;94852.34;5132071;28;20280;-71
2022/10/02 12:05:34;;;;;;;1.85;1.10;;;;;;;18.68;53.89;94839.06;5129474;28;20223;-72
2022/10/02 12:08:13;;;;;;;2.15;0.90;;;;;;;18.90;52.29;94839.31;5130239;27;20236;-73
2022/10/02 12:10:51;;;;;;;1.20;1.10;;;;;;;18.70;51.84;94855.19;5129362;28;20205;-76
2022/10/02 12:13:47;;;;;;;1.10;1.08;;;;;;;18.44;52.22;94837.56;5129447;28;20659;-74
2022/10/02 12:16:27;;;;;;;1.23;1.13;;;;;;;18.55;52.59;94836.91;5131248;27;20193;-73
2022/10/02 12:19:07;;;;;;;2.50;1.13;;;;;;;18.43;51.46;94825.03;5134034;27;20356;-75
2022/10/02 12:27:45;;;;;;;1.25;1.15;;;;;;;18.44;51.48;94834.84;5133746;27;20670;-74
2022/10/02 12:30:15;;;;;;;0.80;0.80;;;;;;;18.28;51.61;94834.22;5133433;27;20197;-72
2022/10/02 12:33:20;;;;;;;0.95;0.95;;;;;;;18.25;51.83;94834.16;5133286;27;20237;-71
2022/10/02 12:36:11;;;;;;;1.30;1.20;;;;;;;18.53;52.18;94828.25;5108335;27;20262;-70
2022/10/02 12:38:51;;;;;;;1.35;1.15;;;;;;;18.40;52.21;94824.97;5133410;27;20220;-70
2022/10/02 12:41:35;;;;;;;1.27;0.90;;;;;;;18.35;51.90;94822.53;5133533;27;20207;-73
2022/10/02 12:44:32;;;;;;;0.75;0.75;;;;;;;18.33;52.01;94833.09;5120171;27;20192;-72
2022/10/02 12:47:39;;;;;;;1.42;0.98;;;;;;;18.41;53.06;94843.81;5132968;27;20196;-72
2022/10/02 12:50:22;;;;;;;0.85;0.75;;;;;;;18.20;51.01;94832.53;5127329;27;20289;-72